Flight Track Log - Related Links

Times and Time Zones

All times are in EDT time to prevent confusion due to time zone crossing. See the HPJ96 flight status page for this flight to view local times or setup timezone preferences in your user account.

Time Position Orientation Groundspeed Altitude Reporting Facility
EDT Latitude Longitude Course Direction KTS MPH feet Rate Location/Type
Wed 02:36:57 PM 40.9000 -74.0500 270° West 222 255 1,700  Level New York TRACON
Wed 02:37:58 PM 40.9333 -74.1167 304° West 231 266 3,100 2,234 Climbing New York TRACON
Wed 02:40:05 PM 40.9378 -74.3117 272° West 257 296 8,700 2,952 Climbing New York Center
Wed 02:41:05 PM 40.9347 -74.4106 268° West 293 337 12,300 2,900 Climbing New York Center
Wed 02:42:00 PM 40.9000 -74.9678 270° West  Level FlightAware Approximate
Wed 02:42:05 PM 40.9325 -74.5475 269° West 321 369 14,500  Level New York Center
Wed 02:43:06 PM 40.9283 -74.6711 267° West 367 422 16,600 1,240 Climbing New York Center
Wed 02:44:06 PM 40.9042 -74.8317 259° West 402 463 17,000 942 Climbing New York Center
Wed 02:45:07 PM 40.8808 -74.9647 257° West 417 480 18,500 1,934 Climbing New York Center
Wed 02:46:07 PM 40.8542 -75.1303 258° West 422 486 20,900 2,441 Climbing New York Center
Wed 02:47:05 PM 40.8322 -75.2717 258° West 434 499 23,300 2,420 Climbing New York Center
Wed 02:48:06 PM 40.8033 -75.4233 256° West 434 499 25,700 2,380 Climbing New York Center
Wed 02:49:06 PM 40.7783 -75.5806 258° West 439 505 28,100 2,430 Climbing New York Center
Wed 02:50:07 PM 40.7503 -75.7511 258° West 439 505 30,600 2,492 Climbing New York Center
Wed 02:51:04 PM 40.7067 -75.8931 248° West 439 505 33,000 2,471 Climbing New York Center
Wed 02:52:06 PM 40.6525 -76.0367 244° Southwest 437 503 35,500 2,311 Climbing New York Center
Wed 02:53:06 PM 40.6150 -76.1733 250° West 422 486 37,700 1,250 Climbing New York Center
Wed 02:54:06 PM 40.6289 -76.3247 277° West 404 465 38,000 151 Climbing New York Center
Wed 02:55:05 PM 40.6569 -76.4775 284° West 412 474 38,000  Level New York Center
Wed 02:56:05 PM 40.6825 -76.6411 282° West 438 504 38,000  Level New York Center
Wed 02:57:06 PM 40.7056 -76.8047 281° West 450 518 38,000  Level New York Center
Wed 02:58:06 PM 40.7306 -76.9658 282° West 450 518 38,000  Level New York Center
Wed 02:59:06 PM 40.7533 -77.1267 281° West 450 518 38,000  Level New York Center
Wed 03:00:05 PM 40.7758 -77.2878 280° West 450 518 38,000  Level New York Center
Wed 03:01:05 PM 40.7950 -77.4294 280° West 450 518 38,000  Level New York Center
Wed 03:03:21 PM 40.8508 -77.8161 281° West 448 516 38,000  Level Cleveland Center
Wed 03:04:22 PM 40.8714 -77.9800 279° West 448 516 38,000  Level Cleveland Center
Wed 03:05:22 PM 40.8939 -78.1439 280° West 454 522 38,000  Level Cleveland Center
Wed 03:06:21 PM 40.9181 -78.3106 281° West 461 531 38,000  Level Cleveland Center
Wed 03:07:21 PM 40.9400 -78.4775 280° West 467 537 38,000  Level Cleveland Center
Wed 03:08:21 PM 40.9639 -78.6444 281° West 467 537 38,000  Level Cleveland Center
Wed 03:09:22 PM 40.9853 -78.8117 280° West 467 537 38,000  Level Cleveland Center
Wed 03:10:21 PM 41.0064 -78.9761 280° West 467 537 38,000  Level Cleveland Center
Wed 03:11:21 PM 41.0256 -79.1519 278° West 467 537 38,000  Level Cleveland Center
Wed 03:12:21 PM 41.0461 -79.3167 279° West 467 537 38,000  Level Cleveland Center
Wed 03:13:22 PM 41.0689 -79.4869 280° West 467 537 38,000 300 Level Cleveland Center
Wed 03:14:21 PM 41.0869 -79.6547 278° West 467 537 38,600 950 Climbing Cleveland Center
Wed 03:15:22 PM 41.1069 -79.8197 279° West 467 537 39,900 700 Climbing Cleveland Center
Wed 03:16:21 PM 41.1247 -79.9822 278° West 467 537 40,000 50 Climbing Cleveland Center
Wed 03:17:22 PM 41.1442 -80.1475 279° West 467 537 40,000  Level Cleveland Center
Wed 03:18:21 PM 41.1633 -80.3156 279° West 467 537 40,000  Level Cleveland Center
Wed 03:19:22 PM 41.1825 -80.4756 279° West 462 532 40,000  Level Cleveland Center
Wed 03:20:21 PM 41.1992 -80.6411 278° West 462 532 40,000  Level Cleveland Center
Wed 03:21:22 PM 41.2178 -80.8011 279° West 455 524 40,000  Level Cleveland Center
Wed 03:22:21 PM 41.2361 -80.9642 279° West 450 518 40,000  Level Cleveland Center
Wed 03:23:22 PM 41.2519 -81.1300 277° West 450 518 40,000  Level Cleveland Center
Wed 03:24:22 PM 41.2697 -81.2903 278° West 445 512 40,000  Level Cleveland Center
Wed 03:25:22 PM 41.2894 -81.4536 279° West 451 519 40,000  Level Cleveland Center
Wed 03:26:21 PM 41.3069 -81.6197 278° West 451 519 40,000  Level Cleveland Center
Wed 03:27:21 PM 41.3219 -81.7858 277° West 451 519 40,000  Level Cleveland Center
Wed 03:28:22 PM 41.3389 -81.9494 278° West 451 519 40,000  Level Cleveland Center
Wed 03:29:21 PM 41.3556 -82.1128 278° West 451 519 40,000  Level Cleveland Center
Wed 03:30:21 PM 41.3658 -82.2819 275° West 457 526 40,000  Level Cleveland Center
Wed 03:31:22 PM 41.3736 -82.4481 274° West 457 526 40,000  Level Cleveland Center
Wed 03:32:22 PM 41.3833 -82.6144 275° West 457 526 40,000  Level Cleveland Center
Wed 03:33:22 PM 41.3928 -82.7808 274° West 457 526 40,000  Level Cleveland Center
Wed 03:34:21 PM 41.3981 -82.9278 273° West 457 526 40,000  Level Cleveland Center
Wed 03:35:21 PM 41.4092 -83.0914 275° West 457 526 40,000  Level Cleveland Center
Wed 03:36:21 PM 41.4139 -83.2550 272° West 457 526 40,000  Level Cleveland Center
Wed 03:37:22 PM 41.4244 -83.4161 275° West 444 511 40,000  Level Cleveland Center
Wed 03:38:21 PM 41.4331 -83.5772 274° West 444 511 40,000  Level Cleveland Center
Wed 03:39:22 PM 41.4389 -83.7436 273° West 444 511 40,000  Level Cleveland Center
Wed 03:40:22 PM 41.4447 -83.9047 273° West 444 511 40,000  Level Cleveland Center
Wed 03:42:20 PM 41.4633 -84.2119 275° West 438 504 40,000  Level Chicago Center
Wed 03:43:22 PM 41.4708 -84.4044 273° West 436 502 40,000  Level Chicago Center
Wed 03:44:24 PM 41.4775 -84.5636 273° West 432 497 40,000  Level Chicago Center
Wed 03:45:26 PM 41.4833 -84.7219 273° West 429 494 40,000  Level Chicago Center
Wed 03:46:28 PM 41.4894 -84.8800 273° West 429 494 40,000  Level Chicago Center
Wed 03:47:30 PM 41.4947 -85.0397 273° West 429 494 40,000  Level Chicago Center
Wed 03:48:33 PM 41.4947 -85.2028 270° West 436 502 40,000  Level Chicago Center
Wed 03:49:35 PM 41.4928 -85.3656 269° West 434 499 40,000  Level Chicago Center
Wed 03:50:37 PM 41.4947 -85.5292 271° West 429 494 40,000  Level Chicago Center
Wed 03:51:39 PM 41.4944 -85.7197 270° West 425 489 40,000  Level Chicago Center
Wed 03:52:41 PM 41.4939 -85.8769 270° West 424 488 40,000  Level Chicago Center
Wed 03:53:43 PM 41.4936 -86.0336 270° West 423 487 40,000  Level Chicago Center
Wed 03:54:45 PM 41.4919 -86.1892 269° West 423 487 40,000  Level Chicago Center
Wed 03:55:47 PM 41.4911 -86.3467 270° West 426 490 40,000  Level Chicago Center
Wed 03:56:49 PM 41.4906 -86.5031 270° West 426 490 40,000  Level Chicago Center
Wed 03:57:51 PM 41.4886 -86.6964 269° West 435 501 40,000  Level Chicago Center
Wed 03:58:53 PM 41.4864 -86.8539 269° West 425 489 40,000  Level Chicago Center
Wed 03:59:55 PM 41.4856 -87.0133 270° West 432 497 40,000  Level Chicago Center
Wed 04:00:58 PM 41.4825 -87.1739 269° West 435 501 40,000  Level Chicago Center
Wed 04:02:00 PM 41.4800 -87.3328 269° West 434 499 40,000  Level Chicago Center
Wed 04:03:02 PM 41.4783 -87.5208 269° West 428 493 40,000  Level Chicago Center
Wed 04:04:04 PM 41.4758 -87.6750 269° West 422 486 40,000  Level Chicago Center
Wed 04:05:06 PM 41.4728 -87.8286 269° West 418 481 40,000  Level Chicago Center
Wed 04:06:08 PM 41.4686 -87.9878 268° West 421 484 40,000  Level Chicago Center
Wed 04:07:10 PM 41.4689 -88.1433 270° West 422 486 40,000  Level Chicago Center
Wed 04:08:12 PM 41.4619 -88.3089 267° West 415 478 40,000  Level Chicago Center
Wed 04:09:14 PM 41.4581 -88.4642 268° West 422 486 40,000  Level Chicago Center
Wed 04:10:16 PM 41.4536 -88.6181 268° West 421 484 40,000  Level Chicago Center
Wed 04:11:18 PM 41.4486 -88.8022 268° West 418 481 40,000  Level Chicago Center
Wed 04:12:21 PM 41.4444 -88.9567 268° West 421 484 40,000  Level Chicago Center
Wed 04:13:23 PM 41.4389 -89.1111 267° West 420 483 40,000  Level Chicago Center
Wed 04:14:25 PM 41.4364 -89.2567 269° West 421 484 40,000  Level Chicago Center
Wed 04:15:27 PM 41.4306 -89.4411 268° West 418 481 40,000  Level Chicago Center
Wed 04:16:29 PM 41.4247 -89.5936 267° West 416 479 40,000  Level Chicago Center
Wed 04:18:33 PM 41.4144 -89.8961 268° West 411 473 40,000  Level Chicago Center
Wed 04:19:35 PM 41.4089 -90.0461 267° West 410 472 40,000  Level Chicago Center
Wed 04:20:37 PM 41.4022 -90.1972 267° West 411 473 40,000  Level Chicago Center
Wed 04:21:39 PM 41.3950 -90.3767 267° West 408 470 40,000  Level Chicago Center
Wed 04:22:41 PM 41.3886 -90.5264 267° West 408 470 40,000  Level Chicago Center
Wed 04:23:43 PM 41.3806 -90.6797 266° West 415 478 40,000  Level Chicago Center
Wed 04:24:46 PM 41.3744 -90.8294 267° West 407 468 40,000  Level Chicago Center
Wed 04:25:48 PM 41.3678 -90.9806 267° West 409 471 40,000  Level Chicago Center
Wed 04:26:50 PM 41.3589 -91.1597 266° West 407 468 40,000  Level Chicago Center
Wed 04:27:52 PM 41.3506 -91.3103 266° West 410 472 40,000  Level Chicago Center
Wed 04:28:54 PM 41.3433 -91.4628 266° West 409 471 40,000  Level Chicago Center
Wed 04:29:56 PM 41.3356 -91.6142 266° West 412 474 40,000  Level Chicago Center
Wed 04:30:58 PM 41.3278 -91.7644 266° West 412 474 40,000  Level Chicago Center
Wed 04:32:00 PM 41.3192 -91.9153 266° West 413 475 40,000  Level Chicago Center
Wed 04:33:02 PM 41.3092 -92.0972 266° West 413 475 40,000  Level Chicago Center
Wed 04:34:04 PM 41.2994 -92.2486 265° West 414 476 40,000  Level Chicago Center
Wed 04:35:06 PM 41.2906 -92.4178 266° West 419 482 40,000  Level Chicago Center
Wed 04:36:08 PM 41.2811 -92.5700 265° West 419 482 40,000  Level Chicago Center
Wed 04:37:06 PM 41.2714 -92.7233 265° West 419 482 40,000  Level Minneapolis Center
Wed 04:38:08 PM 41.2622 -92.8750 265° West 417 480 40,000  Level Minneapolis Center
Wed 04:39:10 PM 41.2522 -93.0278 265° West 418 481 40,000  Level Minneapolis Center
Wed 04:40:13 PM 41.2419 -93.1797 265° West 420 483 40,000  Level Minneapolis Center
Wed 04:41:15 PM 41.2306 -93.3617 265° West 418 481 40,000  Level Minneapolis Center
Wed 04:42:17 PM 41.2189 -93.5114 264° West 413 475 40,000  Level Minneapolis Center
Wed 04:43:19 PM 41.2103 -93.6581 266° West 407 468 40,000  Level Minneapolis Center
Wed 04:44:21 PM 41.2011 -93.8083 265° West 411 473 40,000  Level Minneapolis Center
Wed 04:45:23 PM 41.1903 -93.9586 265° West 413 475 40,000  Level Minneapolis Center
Wed 04:46:25 PM 41.1764 -94.1403 264° West 415 478 40,000  Level Minneapolis Center
Wed 04:47:27 PM 41.1650 -94.2839 264° West 414 476 40,000  Level Minneapolis Center
Wed 04:48:29 PM 41.1522 -94.4369 264° West 416 479 40,000  Level Minneapolis Center
Wed 04:50:33 PM 41.1272 -94.7700 264° West 413 475 40,000  Level Minneapolis Center
Wed 04:51:36 PM 41.1133 -94.9206 263° West 411 473 40,000  Level Minneapolis Center
Wed 04:52:38 PM 41.1006 -95.0722 264° West 412 474 40,000  Level Minneapolis Center
Wed 04:53:40 PM 41.0878 -95.2236 264° West 412 474 40,000  Level Minneapolis Center
Wed 04:54:42 PM 41.0744 -95.3783 264° West 417 480 40,000  Level Minneapolis Center
Wed 04:55:44 PM 41.0611 -95.5308 263° West 417 480 40,000  Level Minneapolis Center
Wed 04:56:46 PM 41.0447 -95.7111 263° West 410 472 40,000  Level Minneapolis Center
Wed 04:57:48 PM 41.0314 -95.8650 263° West 414 476 40,000  Level Minneapolis Center
Wed 04:58:50 PM 41.0161 -96.0175 262° West 414 476 40,000  Level Minneapolis Center
Wed 04:59:52 PM 41.0022 -96.1700 263° West 414 476 40,000  Level Minneapolis Center
Wed 05:00:54 PM 40.9889 -96.3225 263° West 414 476 40,000  Level Minneapolis Center
Wed 05:01:56 PM 40.9750 -96.4753 263° West 416 479 40,000  Level Minneapolis Center
Wed 05:02:58 PM 40.9600 -96.6261 263° West 414 476 40,000  Level Minneapolis Center
Wed 05:04:00 PM 40.9442 -96.7775 262° West 415 478 40,000  Level Minneapolis Center
Wed 05:05:03 PM 40.9272 -96.9589 263° West 414 476 40,000  Level Minneapolis Center
Wed 05:06:05 PM 40.9119 -97.1108 262° West 415 478 40,000  Level Minneapolis Center
Wed 05:07:07 PM 40.8964 -97.2600 262° West 413 475 40,000  Level Minneapolis Center
Wed 05:08:09 PM 40.8800 -97.4242 263° West 415 478 40,000  Level Minneapolis Center
Wed 05:09:11 PM 40.8642 -97.5753 262° West 415 478 40,000  Level Minneapolis Center
Wed 05:10:13 PM 40.8478 -97.7256 262° West 413 475 40,000  Level Minneapolis Center
Wed 05:11:15 PM 40.8314 -97.8769 262° West 414 476 40,000  Level Minneapolis Center
Wed 05:12:17 PM 40.8147 -98.0278 262° West 414 476 40,000  Level Minneapolis Center
Wed 05:13:19 PM 40.7992 -98.1794 262° West 415 478 40,000  Level Minneapolis Center
Wed 05:14:21 PM 40.7783 -98.3597 261° West 413 475 40,000  Level Minneapolis Center
Wed 05:15:23 PM 40.7614 -98.5122 262° West 415 478 40,000  Level Minneapolis Center
Wed 05:16:26 PM 40.7431 -98.6653 261° West 418 481 40,000  Level Minneapolis Center
Wed 05:17:28 PM 40.7250 -98.8183 261° West 419 482 40,000  Level Minneapolis Center
Wed 05:18:30 PM 40.7081 -98.9728 262° West 421 484 40,000  Level Minneapolis Center
Wed 05:19:32 PM 40.6897 -99.1261 261° West 421 484 40,000  Level Minneapolis Center
Wed 05:20:25 PM 40.6711 -99.2808 261° West 425 489 40,000  Level Denver Center
Wed 05:21:27 PM 40.6528 -99.4331 261° West 421 484 40,000  Level Denver Center
Wed 05:22:29 PM 40.6339 -99.5867 261° West 423 487 40,000  Level Denver Center
Wed 05:23:30 PM 40.6142 -99.7400 260° West 424 488 40,000  Level Denver Center
Wed 05:24:32 PM 40.5942 -99.9022 261° West 425 489 40,000  Level Denver Center
Wed 05:25:34 PM 40.5750 -100.0489 260° West 424 488 40,000  Level Denver Center
Wed 05:26:36 PM 40.5531 -100.2222 261° West 427 491 40,000  Level Denver Center
Wed 05:27:37 PM 40.5333 -100.3703 260° West 427 491 40,000  Level Denver Center
Wed 05:28:39 PM 40.5147 -100.5175 261° West 425 489 40,000  Level Denver Center
Wed 05:29:41 PM 40.4917 -100.6914 260° West 429 494 40,000  Level Denver Center
Wed 05:30:43 PM 40.4711 -100.8408 260° West 431 496 40,000  Level Denver Center
Wed 05:31:45 PM 40.4472 -101.0144 260° West 430 495 40,000  Level Denver Center
Wed 05:32:46 PM 40.4278 -101.1614 260° West 427 491 40,000  Level Denver Center
Wed 05:33:48 PM 40.4072 -101.3081 260° West 427 491 40,000  Level Denver Center
Wed 05:34:50 PM 40.3836 -101.4781 260° West 423 487 40,000  Level Denver Center
Wed 05:35:52 PM 40.3622 -101.6236 259° West 423 487 40,000  Level Denver Center
Wed 05:36:53 PM 40.3383 -101.7939 260° West 425 489 40,000  Level Denver Center
Wed 05:37:55 PM 40.3178 -101.9397 260° West 424 488 40,000  Level Denver Center
Wed 05:38:57 PM 40.2931 -102.1108 259° West 427 491 40,000  Level Denver Center
Wed 05:39:59 PM 40.2711 -102.2567 259° West 425 489 40,000  Level Denver Center
Wed 05:41:01 PM 40.2456 -102.4256 259° West 423 487 40,000  Level Denver Center
Wed 05:42:03 PM 40.2239 -102.5692 259° West 422 486 40,000  Level Denver Center
Wed 05:43:04 PM 40.2022 -102.7142 259° West 422 486 40,000  Level Denver Center
Wed 05:44:06 PM 40.1806 -102.8561 259° West 418 481 40,000  Level Denver Center
Wed 05:45:08 PM 40.1550 -103.0222 259° West 418 481 40,000  Level Denver Center
Wed 05:46:10 PM 40.1292 -103.1869 258° West 415 478 40,000  Level Denver Center
Wed 05:47:11 PM 40.1067 -103.3300 258° West 419 482 40,000  Level Denver Center
Wed 05:48:13 PM 40.0800 -103.4953 258° West 418 481 40,000  Level Denver Center
Wed 05:49:15 PM 40.0578 -103.6372 258° West 418 481 40,000  Level Denver Center
Wed 05:50:17 PM 40.0314 -103.8033 258° West 431 496 40,000  Level Denver Center
Wed 05:51:19 PM 40.0072 -103.9539 258° West 426 490 40,000  Level Denver Center
Wed 05:52:21 PM 39.9819 -104.1064 258° West 429 494 40,000  Level Denver Center
Wed 05:54:24 PM 39.9289 -104.4261 258° West 437 503 40,000  Level Denver Center
Wed 05:55:26 PM 39.9031 -104.5803 258° West 437 503 40,000  Level Denver Center
Wed 05:56:28 PM 39.8717 -104.7478 256° West 435 501 40,000  Level Denver Center
Wed 05:57:30 PM 39.8392 -104.9097 255° West 444 511 40,000  Level Denver Center
Wed 05:58:32 PM 39.8106 -105.0606 256° West 433 498 40,000  Level Denver Center
Wed 05:59:34 PM 39.7819 -105.2119 256° West 432 497 40,000  Level Denver Center
Wed 06:00:36 PM 39.7492 -105.3744 255° West 431 496 40,000  Level Denver Center
Wed 06:01:37 PM 39.7192 -105.5258 256° West 430 495 40,000  Level Denver Center
Wed 06:02:39 PM 39.6908 -105.6783 256° West 434 499 40,000  Level Denver Center
Wed 06:03:41 PM 39.6589 -105.8200 254° West 427 491 40,000  Level Denver Center
Wed 06:04:43 PM 39.6300 -105.9697 256° West 427 491 40,000  Level Denver Center
Wed 06:05:45 PM 39.5992 -106.1214 255° West 435 501 40,000  Level Denver Center
Wed 06:06:47 PM 39.5617 -106.3064 255° West 441 507 40,000  Level Denver Center
Wed 06:07:49 PM 39.5297 -106.4611 255° West 444 511 40,000  Level Denver Center
Wed 06:08:51 PM 39.4947 -106.6286 255° West 442 509 40,000  Level Denver Center
Wed 06:09:53 PM 39.4639 -106.7761 255° West 448 516 40,000  Level Denver Center
Wed 06:10:55 PM 39.4319 -106.9225 254° West 442 509 40,000  Level Denver Center
Wed 06:11:56 PM 39.4003 -107.0953 257° West 442 509 40,000  Level Denver Center
Wed 06:12:58 PM 39.3717 -107.2453 256° West 446 513 40,000  Level Denver Center
Wed 06:14:00 PM 39.3039 -107.4022 241° Southwest 450 518 40,000  Level Denver Center
Wed 06:15:02 PM 39.2300 -107.5264 232° Southwest 454 522 40,000  Level Denver Center
Wed 06:16:04 PM 39.1486 -107.6725 234° Southwest 450 518 40,000  Level Denver Center
Wed 06:17:06 PM 39.0792 -107.7969 234° Southwest 448 516 40,000  Level Denver Center
Wed 06:18:08 PM 38.9997 -107.9394 234° Southwest 440 506 40,000  Level Denver Center
Wed 06:19:22 PM 38.9208 -108.0808 234° Southwest 436 502 40,000  Level Denver Center
Wed 06:20:24 PM 38.8411 -108.2208 234° Southwest 434 499 40,000  Level Denver Center
Wed 06:21:26 PM 38.7736 -108.3408 234° Southwest 432 497 40,000  Level Denver Center
Wed 06:22:28 PM 38.6939 -108.4819 234° Southwest 435 501 40,000  Level Denver Center
Wed 06:23:30 PM 38.6256 -108.6017 234° Southwest 435 501 40,000  Level Denver Center
Wed 06:24:32 PM 38.5564 -108.7236 234° Southwest 439 505 40,000  Level Denver Center
Wed 06:25:34 PM 38.4758 -108.8631 234° Southwest 435 501 40,000  Level Denver Center
Wed 06:26:36 PM 38.4072 -108.9828 234° Southwest 436 502 40,000  Level Denver Center
Wed 06:27:37 PM 38.3261 -109.1222 233° Southwest 437 503 40,000  Level Denver Center
Wed 06:28:39 PM 38.2572 -109.2414 234° Southwest 437 503 40,000  Level Denver Center
Wed 06:29:41 PM 38.1761 -109.3783 233° Southwest 436 502 40,000  Level Denver Center
Wed 06:30:43 PM 38.1075 -109.4958 233° Southwest 433 498 40,000 -435 Level Denver Center
Wed 06:31:45 PM 38.0344 -109.6197 233° Southwest 428 493 39,100 -1,500 Descending Denver Center
Wed 06:32:47 PM 37.9547 -109.7556 233° Southwest 431 496 36,900 -1,500 Descending Denver Center
Wed 06:33:49 PM 37.8858 -109.8708 233° Southwest 429 494 36,000 -435 Descending Denver Center
Wed 06:34:51 PM 37.8128 -109.9922 233° Southwest 452 520 36,000 -484 Level Denver Center
Wed 06:35:53 PM 37.7308 -110.1303 233° Southwest 442 509 35,000 -1,306 Descending Denver Center
Wed 06:36:55 PM 37.6606 -110.2475 233° Southwest 439 505 33,300 -2,274 Descending Denver Center
Wed 06:37:57 PM 37.5756 -110.3881 233° Southwest 450 518 30,300 -3,048 Descending Denver Center
Wed 06:38:59 PM 37.5022 -110.5106 233° Southwest 458 527 27,000 -3,000 Descending Denver Center
Wed 06:40:13 PM 37.4147 -110.6517 232° Southwest 460 529 23,500 -3,088 Descending Denver Center
Wed 06:41:15 PM 37.3247 -110.7956 232° Southwest 439 505 20,000 -2,855 Descending Denver Center
Wed 06:42:17 PM 37.2564 -110.9047 232° Southwest 401 461 17,600 -2,468 Descending Denver Center
Wed 06:43:19 PM 37.1933 -111.0075 232° Southwest 377 434 14,900 -2,806 Descending Denver Center
Wed 06:44:21 PM 37.1333 -111.1017 231° Southwest 364 419 11,800 -2,390 Descending Denver Center
Wed 06:45:22 PM 37.0658 -111.2083 232° Southwest 346 398 10,000 -878 Descending Denver Center
Wed 06:46:24 PM 37.0228 -111.2789 233° Southwest 300 345 10,000  Level Denver Center

Login

Don't have an account? Register now (free) for customized features, flight alerts, and more!